createdAt,value
2019-05-06T00:01:00.911Z,5.20
2019-05-06T00:03:26.950Z,4.80
2019-05-06T00:05:54.371Z,4.70
2019-05-06T00:08:20.695Z,5.27
2019-05-06T00:10:46.707Z,5.03
2019-05-06T00:13:14.008Z,5.50
2019-05-06T00:15:40.740Z,5.20
2019-05-06T00:18:06.764Z,5.07
2019-05-06T00:20:34.854Z,5.33
2019-05-06T00:23:09.045Z,4.70
2019-05-06T00:25:45.869Z,4.57
2019-05-06T00:28:33.975Z,6.07
2019-05-06T00:31:10.451Z,6.03
2019-05-06T00:33:30.227Z,5.20
2019-05-06T00:35:56.271Z,5.20
2019-05-06T00:38:24.491Z,5.80
2019-05-06T00:41:00.844Z,5.03
2019-05-06T00:43:26.866Z,5.30
2019-05-06T00:45:53.723Z,5.97
2019-05-06T00:48:19.975Z,5.30
2019-05-06T00:50:46.279Z,5.70
2019-05-06T00:53:14.407Z,5.37
2019-05-06T00:55:40.533Z,5.73
2019-05-06T00:58:06.544Z,5.90
2019-05-06T01:00:33.877Z,5.87
2019-05-06T01:03:00.113Z,5.30
2019-05-06T01:05:26.224Z,6.03
2019-05-06T01:07:54.725Z,6.20
2019-05-06T01:10:20.183Z,5.87
2019-05-06T01:12:50.659Z,7.40
2019-05-06T01:15:18.580Z,5.97
2019-05-06T01:17:44.628Z,5.40
2019-05-06T01:20:10.652Z,5.57
2019-05-06T01:22:36.968Z,6.47
2019-05-06T01:25:04.608Z,5.70
2019-05-06T01:27:30.626Z,5.10
2019-05-06T01:29:56.652Z,6.43
2019-05-06T01:32:23.635Z,6.33
2019-05-06T01:34:49.926Z,6.53
2019-05-06T01:37:15.983Z,6.53
2019-05-06T01:40:00.515Z,6.73
2019-05-06T01:42:37.481Z,5.77
2019-05-06T01:45:05.687Z,6.30
2019-05-06T01:47:34.438Z,6.20
2019-05-06T01:49:59.995Z,6.33
2019-05-06T01:52:26.124Z,5.73
2019-05-06T01:54:54.042Z,6.40
2019-05-06T01:57:20.090Z,5.77
2019-05-06T01:59:46.203Z,6.83
2019-05-06T02:02:14.164Z,6.10
2019-05-06T02:04:40.139Z,5.97
2019-05-06T02:07:06.182Z,5.97
2019-05-06T02:09:34.026Z,7.07
2019-05-06T02:12:00.220Z,6.90
2019-05-06T02:14:26.341Z,6.30
2019-05-06T02:16:54.327Z,6.33
2019-05-06T02:19:20.267Z,5.63
2019-05-06T02:21:48.227Z,6.73
2019-05-06T02:24:16.127Z,5.90
2019-05-06T02:26:43.629Z,6.30
2019-05-06T02:29:17.395Z,5.97
2019-05-06T02:31:51.117Z,7.13
2019-05-06T02:34:19.034Z,6.03
2019-05-06T02:36:47.340Z,7.13
2019-05-06T02:39:14.032Z,5.83
2019-05-06T02:41:42.782Z,5.53
2019-05-06T02:44:11.032Z,6.93
2019-05-06T02:46:37.489Z,6.80
2019-05-06T02:49:18.235Z,6.00
2019-05-06T02:51:44.411Z,7.17
2019-05-06T02:54:13.378Z,6.23
2019-05-06T02:56:38.796Z,5.87
2019-05-06T02:59:04.821Z,7.00
2019-05-06T03:01:33.843Z,5.70
2019-05-06T03:03:58.789Z,6.00
2019-05-06T03:06:25.700Z,6.27
2019-05-06T03:08:54.166Z,6.60
2019-05-06T03:11:20.028Z,6.77
2019-05-06T03:13:46.332Z,6.70
2019-05-06T03:16:14.235Z,6.60
2019-05-06T03:18:43.119Z,7.20
2019-05-06T03:21:25.428Z,6.57
2019-05-06T03:24:04.004Z,7.40
2019-05-06T03:26:32.934Z,6.70
2019-05-06T03:28:58.204Z,7.37
2019-05-06T03:31:26.517Z,6.90
2019-05-06T03:34:17.086Z,7.73
2019-05-06T03:36:27.290Z,7.60
2019-05-06T03:38:48.745Z,7.40
2019-05-06T03:41:14.869Z,7.13
2019-05-06T03:43:43.405Z,7.53
2019-05-06T03:46:14.257Z,7.37
2019-05-06T03:48:44.625Z,7.97
2019-05-06T03:51:15.400Z,5.90
2019-05-06T03:53:43.316Z,8.07
2019-05-06T03:56:09.823Z,7.13
2019-05-06T03:58:36.872Z,7.30
2019-05-06T04:01:03.780Z,7.83
2019-05-06T04:03:44.202Z,7.40
2019-05-06T04:05:58.223Z,7.60
2019-05-06T04:08:24.310Z,7.60
2019-05-06T04:10:53.736Z,7.57
2019-05-06T04:13:19.976Z,7.53
2019-05-06T04:15:56.980Z,7.27
2019-05-06T04:18:27.875Z,7.50
2019-05-06T04:20:55.796Z,8.23
2019-05-06T04:23:32.799Z,7.57
2019-05-06T04:25:59.540Z,6.77
2019-05-06T04:28:34.185Z,7.57
2019-05-06T04:31:02.527Z,7.63
2019-05-06T04:33:28.023Z,7.90
2019-05-06T04:35:54.356Z,7.93
2019-05-06T04:38:23.220Z,7.17
2019-05-06T04:40:48.607Z,7.60
2019-05-06T04:43:14.619Z,7.83
2019-05-06T04:45:43.041Z,7.53
2019-05-06T04:48:08.585Z,7.87
2019-05-06T04:50:34.627Z,7.90
2019-05-06T04:53:05.418Z,7.00
2019-05-06T04:55:33.654Z,8.87
2019-05-06T04:58:04.101Z,7.50
2019-05-06T05:00:32.994Z,7.90
2019-05-06T05:02:58.237Z,7.10
2019-05-06T05:05:24.261Z,6.83
2019-05-06T05:07:52.829Z,8.10
2019-05-06T05:10:23.257Z,7.70
2019-05-06T05:13:03.376Z,7.47
2019-05-06T05:15:36.460Z,7.60
2019-05-06T05:18:13.538Z,7.33
2019-05-06T05:20:43.930Z,7.00
2019-05-06T05:23:07.567Z,6.37
2019-05-06T05:25:33.612Z,7.73
2019-05-06T05:27:59.635Z,7.93
2019-05-06T05:30:25.670Z,6.83
2019-05-06T05:32:52.125Z,5.93
2019-05-06T05:35:18.340Z,6.53
2019-05-06T05:37:44.433Z,6.13
2019-05-06T05:40:12.790Z,6.33
2019-05-06T05:42:46.156Z,6.67
2019-05-06T05:45:12.827Z,6.20
2019-05-06T05:47:39.103Z,6.27
2019-05-06T05:50:09.745Z,6.20
2019-05-06T05:52:35.791Z,6.30
2019-05-06T05:55:02.815Z,6.20
2019-05-06T05:57:29.027Z,6.30
2019-05-06T05:59:55.051Z,6.50
2019-05-06T06:02:22.435Z,5.70
2019-05-06T06:04:54.769Z,6.27
2019-05-06T06:07:16.597Z,6.03
2019-05-06T06:09:44.551Z,5.17
2019-05-06T06:12:12.066Z,7.00
2019-05-06T06:14:40.147Z,5.67
2019-05-06T06:17:14.025Z,5.70
2019-05-06T06:19:42.498Z,5.63
2019-05-06T06:22:17.203Z,5.50
2019-05-06T06:24:43.327Z,5.73
2019-05-06T06:27:09.340Z,6.27
2019-05-06T06:29:35.402Z,5.87
2019-05-06T06:32:18.476Z,5.50
2019-05-06T06:34:49.271Z,5.43
2019-05-06T06:37:34.162Z,5.17
2019-05-06T06:40:02.489Z,5.00
2019-05-06T06:42:28.876Z,5.37
2019-05-06T06:45:04.201Z,5.43
2019-05-06T06:47:32.025Z,5.67
2019-05-06T06:50:05.956Z,5.67
2019-05-06T06:52:37.225Z,5.20
2019-05-06T06:55:18.576Z,5.73
2019-05-06T06:57:52.727Z,5.27
2019-05-06T07:00:26.881Z,5.10
2019-05-06T07:03:09.807Z,4.70
2019-05-06T07:05:39.205Z,5.03
2019-05-06T07:08:05.247Z,4.60
2019-05-06T07:10:43.374Z,4.87
2019-05-06T07:13:15.223Z,5.10
2019-05-06T07:15:42.613Z,5.33
2019-05-06T07:18:08.919Z,5.00
2019-05-06T07:20:39.356Z,5.43
2019-05-06T07:23:22.969Z,4.80
2019-05-06T07:25:49.113Z,5.50
2019-05-06T07:28:15.218Z,5.27
2019-05-06T07:30:53.918Z,4.47
2019-05-06T07:33:25.045Z,4.27
2019-05-06T07:35:53.315Z,4.03
2019-05-06T07:38:19.556Z,4.43
2019-05-06T07:40:47.511Z,4.47
2019-05-06T07:43:34.003Z,3.50
2019-05-06T07:46:12.158Z,4.40
2019-05-06T07:48:38.693Z,4.10
2019-05-06T07:51:05.013Z,3.90
2019-05-06T07:53:32.107Z,4.00
2019-05-06T07:55:58.765Z,3.33
2019-05-06T07:58:25.015Z,3.70
2019-05-06T08:00:52.482Z,4.00
2019-05-06T08:03:22.271Z,3.20
2019-05-06T08:05:57.904Z,3.90
2019-05-06T08:08:16.689Z,3.73
2019-05-06T08:10:42.737Z,3.60
2019-05-06T08:13:08.799Z,4.07
2019-05-06T08:15:35.002Z,3.50
2019-05-06T08:18:03.452Z,4.07
2019-05-06T08:20:38.131Z,3.87
2019-05-06T08:23:12.573Z,4.37
2019-05-06T08:25:42.508Z,4.63
2019-05-06T08:28:08.801Z,3.77
2019-05-06T08:30:34.904Z,3.70
2019-05-06T08:33:02.337Z,3.60
2019-05-06T08:35:28.464Z,3.27
2019-05-06T08:37:56.067Z,3.47
2019-05-06T08:40:23.686Z,3.20
2019-05-06T08:42:50.340Z,3.70
2019-05-06T08:45:19.106Z,3.23
2019-05-06T08:47:45.455Z,3.63
2019-05-06T08:50:13.432Z,3.40
2019-05-06T08:52:44.059Z,3.47
2019-05-06T08:55:15.027Z,3.97
2019-05-06T08:57:42.044Z,3.50
2019-05-06T09:00:09.166Z,4.03
2019-05-06T09:02:35.344Z,3.30
2019-05-06T09:05:03.078Z,3.30
2019-05-06T09:07:29.327Z,2.77
2019-05-06T09:09:55.385Z,2.70
2019-05-06T09:12:22.323Z,3.27
2019-05-06T09:14:48.591Z,3.00
2019-05-06T09:17:14.714Z,3.43
2019-05-06T09:19:42.658Z,3.07
2019-05-06T09:22:08.936Z,2.93
2019-05-06T09:24:34.974Z,2.53
2019-05-06T09:27:03.117Z,2.80
2019-05-06T09:29:32.534Z,2.83
2019-05-06T09:32:03.384Z,3.07
2019-05-06T09:34:49.176Z,3.20
2019-05-06T09:37:17.120Z,3.33
2019-05-06T09:39:43.644Z,4.70
2019-05-06T09:42:12.861Z,4.20
2019-05-06T09:44:39.668Z,4.93
2019-05-06T09:47:07.568Z,4.03
2019-05-06T09:49:35.528Z,3.57
2019-05-06T09:52:02.472Z,3.07
2019-05-06T09:54:36.584Z,3.50
2019-05-06T09:57:16.964Z,3.13
2019-05-06T09:59:43.005Z,2.37
2019-05-06T10:02:12.374Z,2.27
2019-05-06T10:04:38.513Z,2.03
2019-05-06T10:07:04.527Z,1.90
2019-05-06T10:09:32.649Z,2.60
2019-05-06T10:11:58.798Z,2.60
2019-05-06T10:14:25.163Z,2.33
2019-05-06T10:16:52.368Z,2.40
2019-05-06T10:19:19.516Z,2.63
2019-05-06T10:21:48.067Z,2.50
2019-05-06T10:24:19.980Z,3.13
2019-05-06T10:26:52.343Z,2.07
2019-05-06T10:29:22.262Z,1.80
2019-05-06T10:32:01.212Z,2.30
2019-05-06T10:34:27.243Z,1.53
2019-05-06T10:37:20.275Z,1.67
2019-05-06T10:40:17.632Z,2.30
2019-05-06T10:43:04.090Z,1.80
2019-05-06T10:45:32.192Z,2.17
2019-05-06T10:47:57.786Z,1.60
2019-05-06T10:50:24.502Z,1.73
2019-05-06T10:53:10.479Z,1.70
2019-05-06T10:55:42.720Z,1.27
2019-05-06T10:58:08.962Z,1.87
2019-05-06T11:00:34.983Z,1.30
2019-05-06T11:03:19.111Z,1.57
2019-05-06T11:05:45.126Z,1.60
2019-05-06T11:08:13.859Z,1.80
2019-05-06T11:10:44.947Z,1.80
2019-05-06T11:13:07.935Z,2.50
2019-05-06T11:15:33.940Z,1.60
2019-05-06T11:18:04.089Z,1.90
2019-05-06T11:20:34.020Z,1.43
2019-05-06T11:23:01.938Z,2.27
2019-05-06T11:25:27.852Z,1.90
2019-05-06T11:27:53.901Z,1.80
2019-05-06T11:30:24.785Z,2.10
2019-05-06T11:32:54.675Z,2.50
2019-05-06T11:35:28.791Z,2.40
2019-05-06T11:38:12.186Z,2.30
2019-05-06T11:40:39.227Z,2.40
2019-05-06T11:43:05.312Z,2.10
2019-05-06T11:45:43.221Z,2.50
2019-05-06T11:48:09.249Z,2.10
2019-05-06T11:50:38.376Z,2.30
2019-05-06T11:56:47.536Z,1.30
2019-05-06T11:59:02.543Z,1.30
2019-05-06T12:01:32.928Z,1.57
2019-05-06T12:03:59.298Z,1.97
2019-05-06T12:06:25.392Z,1.63
2019-05-06T12:08:52.456Z,1.67
2019-05-06T12:11:18.756Z,3.17
2019-05-06T12:13:44.765Z,2.60
2019-05-06T12:16:13.726Z,3.43
2019-05-06T12:18:38.820Z,3.97
2019-05-06T12:21:11.351Z,3.93
2019-05-06T12:23:35.398Z,3.87
2019-05-06T12:26:02.458Z,4.37
2019-05-06T12:28:49.022Z,3.47
2019-05-06T12:31:15.065Z,3.10
2019-05-06T12:33:42.991Z,2.63
2019-05-06T12:36:14.960Z,2.03
2019-05-06T12:38:48.775Z,2.53
2019-05-06T12:41:14.800Z,2.67
2019-05-06T12:43:43.177Z,2.53
2019-05-06T12:46:13.280Z,2.17
2019-05-06T12:48:43.951Z,2.10
2019-05-06T12:51:09.584Z,2.50
2019-05-06T12:53:35.647Z,2.17
2019-05-06T12:56:03.061Z,1.87
2019-05-06T12:58:29.737Z,1.83
2019-05-06T13:00:55.808Z,1.87
2019-05-06T13:03:23.447Z,2.30
2019-05-06T13:05:52.074Z,2.00
2019-05-06T13:08:20.735Z,2.50
2019-05-06T13:10:46.684Z,1.90
2019-05-06T13:13:12.833Z,2.23
2019-05-06T13:15:39.611Z,2.57
2019-05-06T13:18:06.978Z,2.00
2019-05-06T13:20:34.455Z,2.40
2019-05-06T13:23:20.946Z,2.30
2019-05-06T13:25:45.354Z,2.53
2019-05-06T13:28:12.965Z,2.30
2019-05-06T13:30:39.365Z,2.50
2019-05-06T13:33:08.833Z,2.70
2019-05-06T13:35:35.072Z,2.53
2019-05-06T13:38:01.097Z,2.27
2019-05-06T13:40:27.456Z,3.60
2019-05-06T13:42:57.910Z,2.43
2019-05-06T13:45:24.077Z,2.30
2019-05-06T13:47:52.458Z,2.37
2019-05-06T13:50:23.052Z,1.97
2019-05-06T13:53:06.501Z,1.80
2019-05-06T13:55:17.875Z,1.87
2019-05-06T13:57:43.893Z,2.13
2019-05-06T14:00:13.395Z,2.87
2019-05-06T14:02:43.888Z,1.70
2019-05-06T14:05:12.164Z,2.00
2019-05-06T14:07:39.123Z,2.40
2019-05-06T14:10:05.639Z,2.47
2019-05-06T14:12:33.229Z,3.93
2019-05-06T14:14:59.878Z,9.30
2019-05-06T14:17:25.895Z,3.67
2019-05-06T14:19:53.347Z,3.10
2019-05-06T14:22:23.048Z,2.40
2019-05-06T14:24:50.399Z,2.77
2019-05-06T14:27:18.317Z,2.97
2019-05-06T14:29:55.459Z,2.20
2019-05-06T14:32:23.625Z,1.60
2019-05-06T14:34:51.963Z,2.40
2019-05-06T14:37:17.811Z,2.10
2019-05-06T14:39:53.886Z,2.83
2019-05-06T14:42:13.943Z,3.63
2019-05-06T14:44:42.835Z,5.70
2019-05-06T14:47:27.050Z,1.83
2019-05-06T14:49:53.248Z,3.43
2019-05-06T14:52:22.395Z,2.73
2019-05-06T14:54:49.429Z,2.07
2019-05-06T14:57:16.770Z,1.80
2019-05-06T14:59:43.531Z,1.83
2019-05-06T15:02:10.299Z,2.07
2019-05-06T15:04:38.384Z,1.63
2019-05-06T15:07:15.838Z,1.43
2019-05-06T15:09:58.398Z,1.73
2019-05-06T15:12:16.969Z,2.23
2019-05-06T15:14:42.988Z,2.10
2019-05-06T15:17:09.040Z,2.10
2019-05-06T15:19:35.070Z,1.67
2019-05-06T15:22:02.253Z,2.13
2019-05-06T15:24:28.895Z,2.57
2019-05-06T15:26:54.920Z,5.23
2019-05-06T15:29:23.474Z,3.47
2019-05-06T15:32:07.755Z,1.83
2019-05-06T15:34:36.523Z,1.80
2019-05-06T15:37:04.452Z,1.60
2019-05-06T15:39:32.659Z,2.10
2019-05-06T15:41:58.467Z,1.60
2019-05-06T15:44:24.475Z,1.93
2019-05-06T15:46:52.761Z,1.60
2019-05-06T15:49:18.859Z,1.93
2019-05-06T15:51:45.008Z,2.47
2019-05-06T15:54:11.586Z,1.80
2019-05-06T15:56:37.652Z,2.10
2019-05-06T15:59:03.674Z,2.47
2019-05-06T16:01:33.197Z,2.17
2019-05-06T16:03:57.971Z,2.23
2019-05-06T16:06:23.990Z,2.10
2019-05-06T16:08:52.475Z,2.03
2019-05-06T16:11:28.554Z,10.77
2019-05-06T16:13:54.933Z,3.43
2019-05-06T16:16:22.790Z,2.00
2019-05-06T16:18:48.971Z,3.20
2019-05-06T16:21:15.552Z,4.70
2019-05-06T16:23:46.421Z,2.50
2019-05-06T16:26:12.511Z,3.00
2019-05-06T16:28:38.634Z,2.70
2019-05-06T16:31:04.735Z,2.27
2019-05-06T16:33:33.624Z,2.30
2019-05-06T16:35:59.682Z,2.70
2019-05-06T16:38:26.952Z,3.13
2019-05-06T16:41:02.108Z,3.40
2019-05-06T16:43:22.132Z,4.00
2019-05-06T16:45:48.688Z,2.67
2019-05-06T16:48:14.717Z,2.40
2019-05-06T16:50:42.908Z,2.97
2019-05-06T16:53:09.128Z,3.87
2019-05-06T16:55:54.993Z,3.73
2019-05-06T16:58:34.344Z,3.10
2019-05-06T17:01:00.564Z,2.53
2019-05-06T17:03:42.821Z,2.43
2019-05-06T17:06:20.303Z,3.10
2019-05-06T17:08:46.423Z,5.27
2019-05-06T17:11:25.763Z,2.10
2019-05-06T17:13:44.594Z,2.20
2019-05-06T17:16:09.561Z,2.77
2019-05-06T17:18:35.622Z,1.83
2019-05-06T17:21:01.995Z,1.90
2019-05-06T17:23:28.020Z,1.90
2019-05-06T17:25:54.039Z,2.30
2019-05-06T17:28:37.093Z,2.00
2019-05-06T17:31:22.426Z,2.20
2019-05-06T17:33:59.507Z,1.83
2019-05-06T17:36:27.617Z,2.30
2019-05-06T17:38:55.258Z,3.40
2019-05-06T17:41:23.763Z,2.40
2019-05-06T17:43:51.987Z,2.40
2019-05-06T17:46:22.132Z,2.00
2019-05-06T17:48:52.836Z,2.37
2019-05-06T17:51:21.018Z,2.37
2019-05-06T17:53:48.943Z,2.10
2019-05-06T17:56:15.996Z,2.50
2019-05-06T17:58:42.444Z,1.97
2019-05-06T18:01:12.401Z,2.20
2019-05-06T18:03:39.530Z,1.97
2019-05-06T18:06:09.261Z,7.13
2019-05-06T18:08:33.560Z,2.50
2019-05-06T18:10:59.619Z,2.27
2019-05-06T18:13:25.636Z,2.10
2019-05-06T18:15:53.031Z,1.97
2019-05-06T18:18:19.381Z,1.90
2019-05-06T18:20:45.414Z,3.97
2019-05-06T18:23:12.942Z,1.93
2019-05-06T18:25:39.163Z,2.10
2019-05-06T18:28:05.171Z,2.17
2019-05-06T18:30:34.372Z,2.33
2019-05-06T18:32:59.724Z,2.27
2019-05-06T18:35:25.736Z,2.30
2019-05-06T18:37:52.231Z,1.90
2019-05-06T18:40:18.924Z,2.00
2019-05-06T18:42:45.203Z,2.47
2019-05-06T18:45:12.346Z,2.90
2019-05-06T18:47:42.257Z,2.30
2019-05-06T18:50:08.399Z,2.43
2019-05-06T18:52:34.417Z,1.90
2019-05-06T18:55:03.816Z,2.20
2019-05-06T18:57:32.281Z,2.20
2019-05-06T18:59:57.787Z,2.20
2019-05-06T19:02:26.519Z,2.30
2019-05-06T19:04:53.703Z,2.93
2019-05-06T19:07:21.502Z,3.27
2019-05-06T19:09:55.663Z,2.27
2019-05-06T19:12:30.299Z,2.50
2019-05-06T19:14:49.615Z,2.20
2019-05-06T19:17:16.890Z,1.77
2019-05-06T19:19:42.942Z,3.43
2019-05-06T19:22:09.319Z,10.00
2019-05-06T19:24:35.752Z,2.00
2019-05-06T19:27:02.144Z,2.70
2019-05-06T19:29:28.333Z,2.30
2019-05-06T19:31:54.382Z,2.40
2019-05-06T19:34:20.508Z,2.20
2019-05-06T19:36:46.636Z,2.00
2019-05-06T19:39:12.936Z,1.83
2019-05-06T19:41:38.972Z,1.80
2019-05-06T19:44:04.975Z,2.23
2019-05-06T19:46:32.694Z,2.07
2019-05-06T19:48:58.906Z,2.60
2019-05-06T19:51:24.920Z,2.60
2019-05-06T19:53:51.296Z,3.13
2019-05-06T19:56:17.387Z,2.33
2019-05-06T19:58:43.390Z,3.23
2019-05-06T20:01:10.022Z,2.40
2019-05-06T20:03:36.088Z,3.23
2019-05-06T20:06:13.133Z,2.80
2019-05-06T20:08:42.126Z,2.60
2019-05-06T20:11:10.263Z,2.57
2019-05-06T20:16:04.174Z,2.20
2019-05-06T20:18:32.727Z,2.57
2019-05-06T20:20:58.644Z,3.03
2019-05-06T20:23:25.108Z,2.60
2019-05-06T20:25:51.978Z,2.50
2019-05-06T20:28:18.367Z,2.43
2019-05-06T20:30:44.491Z,2.73
2019-05-06T20:33:12.496Z,2.07
2019-05-06T20:35:38.473Z,2.70
2019-05-06T20:38:05.584Z,2.70
2019-05-06T20:40:32.693Z,2.33
2019-05-06T20:43:13.180Z,2.57
2019-05-06T20:45:27.036Z,3.07
2019-05-06T20:47:53.052Z,3.20
2019-05-06T20:50:19.076Z,2.87
2019-05-06T20:52:45.212Z,2.93
2019-05-06T20:55:12.958Z,2.57
2019-05-06T20:57:42.307Z,2.83
2019-05-06T21:00:12.853Z,2.27
2019-05-06T21:02:39.057Z,3.30
2019-05-06T21:05:10.793Z,2.83
2019-05-06T21:07:36.831Z,2.23
2019-05-06T21:10:06.185Z,2.63
2019-05-06T21:12:33.778Z,2.40
2019-05-06T21:15:02.241Z,2.50
2019-05-06T21:17:28.053Z,2.67
2019-05-06T21:19:55.582Z,2.53
2019-05-06T21:22:29.085Z,2.20
2019-05-06T21:24:52.646Z,2.30
2019-05-06T21:27:22.930Z,2.27
2019-05-06T21:29:48.630Z,2.33
2019-05-06T21:32:14.736Z,6.43
2019-05-06T21:34:49.799Z,2.83
2019-05-06T21:37:15.943Z,2.50
2019-05-06T21:39:42.462Z,2.57
2019-05-06T21:42:08.711Z,2.63
2019-05-06T21:44:35.086Z,2.10
2019-05-06T21:47:08.767Z,2.27
2019-05-06T21:49:34.799Z,2.50
2019-05-06T21:52:02.084Z,2.40
2019-05-06T21:54:28.463Z,2.63
2019-05-06T21:56:54.477Z,2.50
2019-05-06T21:59:20.556Z,3.10
2019-05-06T22:01:46.771Z,2.60
2019-05-06T22:04:13.109Z,2.30
2019-05-06T22:06:45.511Z,2.40
2019-05-06T22:09:09.944Z,2.20
2019-05-06T22:11:35.958Z,2.60
2019-05-06T22:14:02.319Z,2.10
2019-05-06T22:16:28.402Z,2.27
2019-05-06T22:18:54.416Z,2.30
2019-05-06T22:21:22.716Z,2.37
2019-05-06T22:23:53.624Z,2.17
2019-05-06T22:26:22.863Z,2.63
2019-05-06T22:28:48.923Z,5.13
2019-05-06T22:31:14.940Z,26.67
2019-05-06T22:33:42.990Z,10.20
2019-05-06T22:36:09.848Z,7.20
2019-05-06T22:38:35.853Z,10.97
2019-05-06T22:41:10.869Z,9.90
2019-05-06T22:43:36.964Z,5.83
2019-05-06T22:46:03.061Z,5.03
2019-05-06T22:48:29.096Z,2.80
2019-05-06T22:50:55.649Z,2.67
2019-05-06T22:53:22.121Z,3.07
2019-05-06T22:55:49.661Z,2.60
2019-05-06T22:58:15.817Z,2.77
2019-05-06T23:00:43.753Z,3.37
2019-05-06T23:03:12.372Z,3.20
2019-05-06T23:05:38.872Z,3.57
2019-05-06T23:08:05.140Z,2.60
2019-05-06T23:10:33.514Z,3.37
2019-05-06T23:12:59.197Z,3.20
2019-05-06T23:15:25.227Z,3.20
2019-05-06T23:17:52.693Z,2.80
2019-05-06T23:20:18.868Z,3.03
2019-05-06T23:22:46.275Z,3.30
2019-05-06T23:25:12.615Z,3.30
2019-05-06T23:27:38.821Z,3.00
2019-05-06T23:30:05.233Z,3.60
2019-05-06T23:32:32.602Z,3.97
2019-05-06T23:34:59.096Z,2.97
2019-05-06T23:37:24.903Z,2.87
2019-05-06T23:40:30.000Z,3.00
2019-05-06T23:43:33.559Z,2.97
2019-05-06T23:46:37.620Z,2.97
2019-05-06T23:49:42.200Z,3.33
2019-05-06T23:52:47.206Z,3.90
2019-05-06T23:55:55.352Z,3.93
2019-05-06T23:58:22.505Z,3.30
